sensor_id;sensor_type;location;lat;lon;timestamp;temperature;humidity
4366;DHT22;2196;47.422;9.656;2023-03-23T00:02:03;11.30;99.90
4366;DHT22;2196;47.422;9.656;2023-03-23T00:04:30;11.40;99.90
4366;DHT22;2196;47.422;9.656;2023-03-23T00:06:59;11.50;99.90
4366;DHT22;2196;47.422;9.656;2023-03-23T00:09:28;11.50;99.90
4366;DHT22;2196;47.422;9.656;2023-03-23T00:12:00;11.50;99.90
4366;DHT22;2196;47.422;9.656;2023-03-23T00:14:31;11.40;99.90
4366;DHT22;2196;47.422;9.656;2023-03-23T00:17:07;11.50;99.90
4366;DHT22;2196;47.422;9.656;2023-03-23T00:19:35;11.50;99.90
4366;DHT22;2196;47.422;9.656;2023-03-23T00:22:13;11.50;99.90
4366;DHT22;2196;47.422;9.656;2023-03-23T00:24:41;11.60;99.90
4366;DHT22;2196;47.422;9.656;2023-03-23T00:27:09;11.50;99.90
4366;DHT22;2196;47.422;9.656;2023-03-23T00:29:38;11.40;99.90
4366;DHT22;2196;47.422;9.656;2023-03-23T00:32:06;11.30;99.90
4366;DHT22;2196;47.422;9.656;2023-03-23T00:34:38;11.10;99.90
4366;DHT22;2196;47.422;9.656;2023-03-23T00:37:06;11.00;99.90
4366;DHT22;2196;47.422;9.656;2023-03-23T00:39:35;10.90;99.90
4366;DHT22;2196;47.422;9.656;2023-03-23T00:42:03;10.80;99.90
4366;DHT22;2196;47.422;9.656;2023-03-23T00:44:32;10.80;99.90
4366;DHT22;2196;47.422;9.656;2023-03-23T00:47:01;10.70;99.90
4366;DHT22;2196;47.422;9.656;2023-03-23T00:49:29;10.60;99.90
4366;DHT22;2196;47.422;9.656;2023-03-23T00:51:57;10.50;99.90
4366;DHT22;2196;47.422;9.656;2023-03-23T00:54:24;10.40;99.90
4366;DHT22;2196;47.422;9.656;2023-03-23T01:13:43;10.20;99.90
4366;DHT22;2196;47.422;9.656;2023-03-23T01:16:10;10.20;99.90
4366;DHT22;2196;47.422;9.656;2023-03-23T01:18:38;10.20;99.90
4366;DHT22;2196;47.422;9.656;2023-03-23T02:22:22;10.00;99.90
4366;DHT22;2196;47.422;9.656;2023-03-23T02:31:54;10.10;99.90
4366;DHT22;2196;47.422;9.656;2023-03-23T02:34:27;10.00;99.90
4366;DHT22;2196;47.422;9.656;2023-03-23T02:43:42;9.90;99.90
4366;DHT22;2196;47.422;9.656;2023-03-23T02:46:11;10.00;99.90
4366;DHT22;2196;47.422;9.656;2023-03-23T02:48:41;9.90;99.90
4366;DHT22;2196;47.422;9.656;2023-03-23T02:51:10;9.90;99.90
4366;DHT22;2196;47.422;9.656;2023-03-23T02:53:41;9.90;99.90
4366;DHT22;2196;47.422;9.656;2023-03-23T03:26:29;9.70;99.90
4366;DHT22;2196;47.422;9.656;2023-03-23T03:28:57;9.60;99.90
4366;DHT22;2196;47.422;9.656;2023-03-23T03:31:29;9.60;99.90
4366;DHT22;2196;47.422;9.656;2023-03-23T03:33:57;9.70;99.90
4366;DHT22;2196;47.422;9.656;2023-03-23T03:36:28;9.70;99.90
4366;DHT22;2196;47.422;9.656;2023-03-23T03:39:02;9.80;99.90
4366;DHT22;2196;47.422;9.656;2023-03-23T03:41:34;9.80;99.90
4366;DHT22;2196;47.422;9.656;2023-03-23T03:44:02;9.80;99.90
4366;DHT22;2196;47.422;9.656;2023-03-23T03:46:29;9.80;99.90
4366;DHT22;2196;47.422;9.656;2023-03-23T03:48:56;9.90;99.90
4366;DHT22;2196;47.422;9.656;2023-03-23T03:51:24;10.00;99.90
4366;DHT22;2196;47.422;9.656;2023-03-23T03:53:51;10.00;99.90
4366;DHT22;2196;47.422;9.656;2023-03-23T04:00:00;10.00;99.90
4366;DHT22;2196;47.422;9.656;2023-03-23T04:02:29;10.00;99.90
4366;DHT22;2196;47.422;9.656;2023-03-23T04:04:57;9.90;99.90
4366;DHT22;2196;47.422;9.656;2023-03-23T04:07:24;10.00;99.90
4366;DHT22;2196;47.422;9.656;2023-03-23T04:09:51;10.00;99.90
4366;DHT22;2196;47.422;9.656;2023-03-23T04:12:18;10.10;99.90
4366;DHT22;2196;47.422;9.656;2023-03-23T04:14:45;10.10;99.90
4366;DHT22;2196;47.422;9.656;2023-03-23T04:17:14;10.00;99.90
4366;DHT22;2196;47.422;9.656;2023-03-23T04:19:42;10.10;99.90
4366;DHT22;2196;47.422;9.656;2023-03-23T04:22:10;10.00;99.90
4366;DHT22;2196;47.422;9.656;2023-03-23T04:24:37;10.00;99.90
4366;DHT22;2196;47.422;9.656;2023-03-23T04:27:04;9.90;99.90
4366;DHT22;2196;47.422;9.656;2023-03-23T04:29:31;10.00;99.90
4366;DHT22;2196;47.422;9.656;2023-03-23T04:31:59;10.00;99.90
4366;DHT22;2196;47.422;9.656;2023-03-23T04:34:28;10.00;99.90
4366;DHT22;2196;47.422;9.656;2023-03-23T04:36:59;10.10;99.90
4366;DHT22;2196;47.422;9.656;2023-03-23T04:39:26;10.10;99.90
4366;DHT22;2196;47.422;9.656;2023-03-23T04:41:54;10.10;99.90
4366;DHT22;2196;47.422;9.656;2023-03-23T04:44:26;10.10;99.90
4366;DHT22;2196;47.422;9.656;2023-03-23T04:46:53;10.10;99.90
4366;DHT22;2196;47.422;9.656;2023-03-23T04:49:20;10.00;99.90
4366;DHT22;2196;47.422;9.656;2023-03-23T04:51:48;10.00;99.90
4366;DHT22;2196;47.422;9.656;2023-03-23T04:54:16;10.00;99.90
4366;DHT22;2196;47.422;9.656;2023-03-23T04:56:43;10.00;99.90
4366;DHT22;2196;47.422;9.656;2023-03-23T04:59:10;10.00;99.90
4366;DHT22;2196;47.422;9.656;2023-03-23T05:01:39;10.00;99.90
4366;DHT22;2196;47.422;9.656;2023-03-23T05:04:11;10.00;99.90
4366;DHT22;2196;47.422;9.656;2023-03-23T05:06:38;10.10;99.90
4366;DHT22;2196;47.422;9.656;2023-03-23T05:09:08;10.30;99.90
4366;DHT22;2196;47.422;9.656;2023-03-23T05:11:35;10.40;99.90
4366;DHT22;2196;47.422;9.656;2023-03-23T05:14:03;10.60;99.90
4366;DHT22;2196;47.422;9.656;2023-03-23T05:16:30;10.70;99.90
4366;DHT22;2196;47.422;9.656;2023-03-23T05:18:57;10.90;99.90
4366;DHT22;2196;47.422;9.656;2023-03-23T05:21:24;11.10;99.90
4366;DHT22;2196;47.422;9.656;2023-03-23T05:23:51;11.10;99.90
4366;DHT22;2196;47.422;9.656;2023-03-23T05:26:22;11.10;99.90
4366;DHT22;2196;47.422;9.656;2023-03-23T05:28:49;11.20;99.90
4366;DHT22;2196;47.422;9.656;2023-03-23T05:31:18;11.20;99.90
4366;DHT22;2196;47.422;9.656;2023-03-23T05:33:45;11.20;99.90
4366;DHT22;2196;47.422;9.656;2023-03-23T05:59:48;11.20;99.90
4366;DHT22;2196;47.422;9.656;2023-03-23T06:02:15;11.20;99.90
4366;DHT22;2196;47.422;9.656;2023-03-23T06:04:42;11.10;99.90
4366;DHT22;2196;47.422;9.656;2023-03-23T06:07:10;11.20;99.90
4366;DHT22;2196;47.422;9.656;2023-03-23T06:09:40;11.10;99.90
4366;DHT22;2196;47.422;9.656;2023-03-23T06:12:09;11.10;99.90
4366;DHT22;2196;47.422;9.656;2023-03-23T06:14:37;11.10;99.90
4366;DHT22;2196;47.422;9.656;2023-03-23T06:17:05;11.20;99.90
4366;DHT22;2196;47.422;9.656;2023-03-23T06:19:33;11.20;99.90
4366;DHT22;2196;47.422;9.656;2023-03-23T06:22:02;11.30;99.90
4366;DHT22;2196;47.422;9.656;2023-03-23T06:24:31;11.40;99.90
4366;DHT22;2196;47.422;9.656;2023-03-23T06:26:58;11.50;99.90
4366;DHT22;2196;47.422;9.656;2023-03-23T06:29:25;11.40;99.90
4366;DHT22;2196;47.422;9.656;2023-03-23T06:31:54;11.50;99.90
4366;DHT22;2196;47.422;9.656;2023-03-23T06:34:23;11.60;99.90
4366;DHT22;2196;47.422;9.656;2023-03-23T06:36:50;11.60;99.90
4366;DHT22;2196;47.422;9.656;2023-03-23T06:39:17;11.70;99.90
4366;DHT22;2196;47.422;9.656;2023-03-23T06:41:44;11.70;99.90
4366;DHT22;2196;47.422;9.656;2023-03-23T06:44:11;11.70;99.90
4366;DHT22;2196;47.422;9.656;2023-03-23T06:46:40;11.80;99.90
4366;DHT22;2196;47.422;9.656;2023-03-23T06:49:08;11.80;99.90
4366;DHT22;2196;47.422;9.656;2023-03-23T06:51:37;11.80;99.90
4366;DHT22;2196;47.422;9.656;2023-03-23T06:54:04;11.70;99.90
4366;DHT22;2196;47.422;9.656;2023-03-23T06:56:32;11.80;99.90
4366;DHT22;2196;47.422;9.656;2023-03-23T06:58:59;11.80;99.90
4366;DHT22;2196;47.422;9.656;2023-03-23T07:01:26;11.90;99.90
4366;DHT22;2196;47.422;9.656;2023-03-23T07:03:54;12.10;99.90
4366;DHT22;2196;47.422;9.656;2023-03-23T07:06:22;12.20;99.90
4366;DHT22;2196;47.422;9.656;2023-03-23T07:08:50;12.30;99.90
4366;DHT22;2196;47.422;9.656;2023-03-23T07:11:17;12.30;99.90
4366;DHT22;2196;47.422;9.656;2023-03-23T07:13:44;12.40;99.90
4366;DHT22;2196;47.422;9.656;2023-03-23T07:16:12;12.40;99.90
4366;DHT22;2196;47.422;9.656;2023-03-23T07:18:38;12.40;99.90
4366;DHT22;2196;47.422;9.656;2023-03-23T07:21:06;12.40;99.90
4366;DHT22;2196;47.422;9.656;2023-03-23T07:23:33;12.40;99.90
4366;DHT22;2196;47.422;9.656;2023-03-23T07:26:02;12.40;99.90
4366;DHT22;2196;47.422;9.656;2023-03-23T07:28:29;12.50;99.90
4366;DHT22;2196;47.422;9.656;2023-03-23T07:30:56;12.60;99.90
4366;DHT22;2196;47.422;9.656;2023-03-23T07:33:23;12.70;99.90
4366;DHT22;2196;47.422;9.656;2023-03-23T07:35:50;12.80;99.90
4366;DHT22;2196;47.422;9.656;2023-03-23T07:38:17;12.90;99.90
4366;DHT22;2196;47.422;9.656;2023-03-23T07:40:45;13.00;99.90
4366;DHT22;2196;47.422;9.656;2023-03-23T07:43:14;13.00;99.90
4366;DHT22;2196;47.422;9.656;2023-03-23T07:45:41;13.10;99.90
4366;DHT22;2196;47.422;9.656;2023-03-23T07:48:08;13.30;99.90
4366;DHT22;2196;47.422;9.656;2023-03-23T07:50:35;13.30;99.90
4366;DHT22;2196;47.422;9.656;2023-03-23T07:53:03;13.50;99.90
4366;DHT22;2196;47.422;9.656;2023-03-23T07:55:31;13.60;99.90
4366;DHT22;2196;47.422;9.656;2023-03-23T07:58:00;13.90;99.90
4366;DHT22;2196;47.422;9.656;2023-03-23T08:00:28;14.10;99.90
4366;DHT22;2196;47.422;9.656;2023-03-23T08:02:57;14.20;99.90
4366;DHT22;2196;47.422;9.656;2023-03-23T08:05:25;14.30;99.90
4366;DHT22;2196;47.422;9.656;2023-03-23T08:07:53;14.40;99.90
4366;DHT22;2196;47.422;9.656;2023-03-23T08:10:22;14.50;99.90
4366;DHT22;2196;47.422;9.656;2023-03-23T08:12:51;14.50;99.90
4366;DHT22;2196;47.422;9.656;2023-03-23T08:15:18;14.60;99.90
4366;DHT22;2196;47.422;9.656;2023-03-23T08:17:48;14.70;99.90
4366;DHT22;2196;47.422;9.656;2023-03-23T08:20:16;14.80;99.90
4366;DHT22;2196;47.422;9.656;2023-03-23T08:22:45;14.80;99.90
4366;DHT22;2196;47.422;9.656;2023-03-23T08:25:13;15.00;99.90
4366;DHT22;2196;47.422;9.656;2023-03-23T08:27:42;15.20;99.90
4366;DHT22;2196;47.422;9.656;2023-03-23T08:30:11;15.50;99.90
4366;DHT22;2196;47.422;9.656;2023-03-23T08:32:39;15.80;99.90
4366;DHT22;2196;47.422;9.656;2023-03-23T08:35:09;16.10;99.90
4366;DHT22;2196;47.422;9.656;2023-03-23T08:37:36;16.30;99.90
4366;DHT22;2196;47.422;9.656;2023-03-23T08:40:05;16.50;99.90
4366;DHT22;2196;47.422;9.656;2023-03-23T08:42:35;16.70;99.90
4366;DHT22;2196;47.422;9.656;2023-03-23T08:45:04;16.70;99.90
4366;DHT22;2196;47.422;9.656;2023-03-23T08:47:31;16.80;99.90
4366;DHT22;2196;47.422;9.656;2023-03-23T08:49:58;17.00;99.90
4366;DHT22;2196;47.422;9.656;2023-03-23T08:52:27;17.10;99.90
4366;DHT22;2196;47.422;9.656;2023-03-23T08:54:55;17.20;99.90
4366;DHT22;2196;47.422;9.656;2023-03-23T08:57:22;17.20;99.90
4366;DHT22;2196;47.422;9.656;2023-03-23T08:59:49;17.40;99.90
4366;DHT22;2196;47.422;9.656;2023-03-23T09:02:17;17.40;99.90
4366;DHT22;2196;47.422;9.656;2023-03-23T09:04:44;17.40;99.90
4366;DHT22;2196;47.422;9.656;2023-03-23T09:07:12;17.50;99.90
4366;DHT22;2196;47.422;9.656;2023-03-23T09:09:41;17.30;99.90
4366;DHT22;2196;47.422;9.656;2023-03-23T09:12:10;17.20;99.90
4366;DHT22;2196;47.422;9.656;2023-03-23T09:14:38;17.00;99.90
4366;DHT22;2196;47.422;9.656;2023-03-23T09:17:05;17.00;99.90
4366;DHT22;2196;47.422;9.656;2023-03-23T09:19:33;17.00;99.90
4366;DHT22;2196;47.422;9.656;2023-03-23T09:22:02;17.00;99.90
4366;DHT22;2196;47.422;9.656;2023-03-23T09:24:29;17.10;99.90
4366;DHT22;2196;47.422;9.656;2023-03-23T09:26:58;17.10;99.90
4366;DHT22;2196;47.422;9.656;2023-03-23T09:29:26;17.00;99.90
4366;DHT22;2196;47.422;9.656;2023-03-23T09:31:53;16.80;99.90
4366;DHT22;2196;47.422;9.656;2023-03-23T09:34:21;16.90;99.90
4366;DHT22;2196;47.422;9.656;2023-03-23T09:36:48;16.80;99.90
4366;DHT22;2196;47.422;9.656;2023-03-23T09:39:16;16.90;99.90
4366;DHT22;2196;47.422;9.656;2023-03-23T09:42:01;17.00;99.90
4366;DHT22;2196;47.422;9.656;2023-03-23T09:44:36;17.00;99.90
4366;DHT22;2196;47.422;9.656;2023-03-23T09:47:10;17.10;99.90
4366;DHT22;2196;47.422;9.656;2023-03-23T09:49:42;17.30;99.90
4366;DHT22;2196;47.422;9.656;2023-03-23T09:52:11;17.30;99.90
4366;DHT22;2196;47.422;9.656;2023-03-23T09:54:42;17.30;99.90
4366;DHT22;2196;47.422;9.656;2023-03-23T09:57:15;17.30;99.90
4366;DHT22;2196;47.422;9.656;2023-03-23T09:59:51;17.40;99.90
4366;DHT22;2196;47.422;9.656;2023-03-23T10:02:24;17.50;99.90
4366;DHT22;2196;47.422;9.656;2023-03-23T10:04:56;17.60;99.90
4366;DHT22;2196;47.422;9.656;2023-03-23T10:07:27;17.70;99.90
4366;DHT22;2196;47.422;9.656;2023-03-23T10:09:57;17.80;99.90
4366;DHT22;2196;47.422;9.656;2023-03-23T10:12:31;17.80;99.90
4366;DHT22;2196;47.422;9.656;2023-03-23T10:15:13;17.80;99.90
4366;DHT22;2196;47.422;9.656;2023-03-23T10:17:45;17.70;99.90
4366;DHT22;2196;47.422;9.656;2023-03-23T10:20:31;17.70;99.90
4366;DHT22;2196;47.422;9.656;2023-03-23T10:23:05;17.70;99.90
4366;DHT22;2196;47.422;9.656;2023-03-23T10:25:38;17.80;99.90
4366;DHT22;2196;47.422;9.656;2023-03-23T10:28:11;18.10;99.90
4366;DHT22;2196;47.422;9.656;2023-03-23T10:30:41;18.60;99.90
4366;DHT22;2196;47.422;9.656;2023-03-23T10:33:14;18.90;99.90
4366;DHT22;2196;47.422;9.656;2023-03-23T10:35:47;19.00;99.90
4366;DHT22;2196;47.422;9.656;2023-03-23T10:38:17;19.30;99.90
4366;DHT22;2196;47.422;9.656;2023-03-23T10:40:50;19.40;99.90
4366;DHT22;2196;47.422;9.656;2023-03-23T10:43:19;19.40;99.90
4366;DHT22;2196;47.422;9.656;2023-03-23T10:45:51;19.30;99.90
4366;DHT22;2196;47.422;9.656;2023-03-23T10:48:25;19.50;99.90
4366;DHT22;2196;47.422;9.656;2023-03-23T10:50:56;19.40;99.90
4366;DHT22;2196;47.422;9.656;2023-03-23T10:53:29;19.50;99.90
4366;DHT22;2196;47.422;9.656;2023-03-23T10:55:57;19.30;99.90
4366;DHT22;2196;47.422;9.656;2023-03-23T10:58:29;19.20;99.90
4366;DHT22;2196;47.422;9.656;2023-03-23T11:00:58;19.20;99.90
4366;DHT22;2196;47.422;9.656;2023-03-23T11:03:37;19.20;99.90
4366;DHT22;2196;47.422;9.656;2023-03-23T11:06:06;19.40;99.90
4366;DHT22;2196;47.422;9.656;2023-03-23T11:08:36;19.60;99.90
4366;DHT22;2196;47.422;9.656;2023-03-23T11:11:14;19.60;99.90
4366;DHT22;2196;47.422;9.656;2023-03-23T11:13:47;19.90;99.90
4366;DHT22;2196;47.422;9.656;2023-03-23T11:16:24;20.20;99.80
4366;DHT22;2196;47.422;9.656;2023-03-23T11:18:51;20.50;99.90
4366;DHT22;2196;47.422;9.656;2023-03-23T11:21:20;20.70;99.90
4366;DHT22;2196;47.422;9.656;2023-03-23T11:23:50;20.80;98.20
4366;DHT22;2196;47.422;9.656;2023-03-23T11:26:21;20.90;98.70
4366;DHT22;2196;47.422;9.656;2023-03-23T11:28:53;21.00;98.00
4366;DHT22;2196;47.422;9.656;2023-03-23T11:31:23;21.10;98.30
4366;DHT22;2196;47.422;9.656;2023-03-23T11:33:53;21.30;98.70
4366;DHT22;2196;47.422;9.656;2023-03-23T11:36:29;21.50;97.40
4366;DHT22;2196;47.422;9.656;2023-03-23T11:38:57;21.40;97.00
4366;DHT22;2196;47.422;9.656;2023-03-23T11:41:30;21.60;96.60
4366;DHT22;2196;47.422;9.656;2023-03-23T11:44:08;21.70;96.30
4366;DHT22;2196;47.422;9.656;2023-03-23T11:46:42;21.30;95.80
4366;DHT22;2196;47.422;9.656;2023-03-23T11:49:18;21.20;96.10
4366;DHT22;2196;47.422;9.656;2023-03-23T11:51:49;21.00;95.80
4366;DHT22;2196;47.422;9.656;2023-03-23T11:54:21;21.00;97.00
4366;DHT22;2196;47.422;9.656;2023-03-23T11:56:53;20.90;99.20
4366;DHT22;2196;47.422;9.656;2023-03-23T11:59:29;21.00;99.90
4366;DHT22;2196;47.422;9.656;2023-03-23T12:02:05;20.90;97.90
4366;DHT22;2196;47.422;9.656;2023-03-23T12:04:52;20.90;96.30
4366;DHT22;2196;47.422;9.656;2023-03-23T12:07:46;20.70;96.40
4366;DHT22;2196;47.422;9.656;2023-03-23T12:10:25;20.70;97.00
4366;DHT22;2196;47.422;9.656;2023-03-23T12:13:06;20.60;97.90
4366;DHT22;2196;47.422;9.656;2023-03-23T12:15:45;20.30;98.80
4366;DHT22;2196;47.422;9.656;2023-03-23T12:18:21;19.80;98.60
4366;DHT22;2196;47.422;9.656;2023-03-23T12:21:00;19.60;99.70
4366;DHT22;2196;47.422;9.656;2023-03-23T12:23:36;19.50;99.90
4366;DHT22;2196;47.422;9.656;2023-03-23T12:26:23;19.60;99.90
4366;DHT22;2196;47.422;9.656;2023-03-23T12:29:23;19.50;99.90
4366;DHT22;2196;47.422;9.656;2023-03-23T12:32:13;19.30;99.90
4366;DHT22;2196;47.422;9.656;2023-03-23T12:34:50;19.30;99.90
4366;DHT22;2196;47.422;9.656;2023-03-23T12:37:31;19.20;99.90
4366;DHT22;2196;47.422;9.656;2023-03-23T12:40:31;19.30;99.90
4366;DHT22;2196;47.422;9.656;2023-03-23T12:43:04;19.30;99.90
4366;DHT22;2196;47.422;9.656;2023-03-23T12:45:55;19.40;99.90
4366;DHT22;2196;47.422;9.656;2023-03-23T12:48:31;19.50;99.90
4366;DHT22;2196;47.422;9.656;2023-03-23T12:51:19;19.60;99.90
4366;DHT22;2196;47.422;9.656;2023-03-23T12:53:52;19.60;99.90
4366;DHT22;2196;47.422;9.656;2023-03-23T12:56:26;19.80;99.90
4366;DHT22;2196;47.422;9.656;2023-03-23T12:59:04;19.90;99.90
4366;DHT22;2196;47.422;9.656;2023-03-23T13:01:35;19.90;99.90
4366;DHT22;2196;47.422;9.656;2023-03-23T13:04:07;19.90;99.70
4366;DHT22;2196;47.422;9.656;2023-03-23T13:06:38;19.80;99.90
4366;DHT22;2196;47.422;9.656;2023-03-23T13:09:11;19.70;99.90
4366;DHT22;2196;47.422;9.656;2023-03-23T13:11:41;19.60;99.90
4366;DHT22;2196;47.422;9.656;2023-03-23T13:14:21;19.60;99.90
4366;DHT22;2196;47.422;9.656;2023-03-23T13:16:57;19.70;99.90
4366;DHT22;2196;47.422;9.656;2023-03-23T13:19:34;19.60;99.40
4366;DHT22;2196;47.422;9.656;2023-03-23T13:22:06;19.70;99.40
4366;DHT22;2196;47.422;9.656;2023-03-23T13:24:38;19.60;99.70
4366;DHT22;2196;47.422;9.656;2023-03-23T13:27:08;19.80;99.90
4366;DHT22;2196;47.422;9.656;2023-03-23T13:29:43;19.90;99.90
4366;DHT22;2196;47.422;9.656;2023-03-23T13:32:12;19.90;99.90
4366;DHT22;2196;47.422;9.656;2023-03-23T13:34:43;19.80;99.90
4366;DHT22;2196;47.422;9.656;2023-03-23T13:37:20;19.60;99.90
4366;DHT22;2196;47.422;9.656;2023-03-23T13:39:50;19.50;99.90
4366;DHT22;2196;47.422;9.656;2023-03-23T13:42:22;19.50;99.90
4366;DHT22;2196;47.422;9.656;2023-03-23T13:45:15;19.50;99.90
4366;DHT22;2196;47.422;9.656;2023-03-23T13:47:44;19.50;99.90
4366;DHT22;2196;47.422;9.656;2023-03-23T13:50:26;19.60;99.90
4366;DHT22;2196;47.422;9.656;2023-03-23T13:52:58;19.70;99.90
4366;DHT22;2196;47.422;9.656;2023-03-23T13:55:42;19.70;99.90
4366;DHT22;2196;47.422;9.656;2023-03-23T13:58:23;19.80;99.90
4366;DHT22;2196;47.422;9.656;2023-03-23T14:01:02;19.70;99.90
4366;DHT22;2196;47.422;9.656;2023-03-23T14:03:38;19.50;99.90
4366;DHT22;2196;47.422;9.656;2023-03-23T14:06:12;19.10;99.90
4366;DHT22;2196;47.422;9.656;2023-03-23T14:08:42;19.10;99.90
4366;DHT22;2196;47.422;9.656;2023-03-23T14:11:16;19.00;99.90
4366;DHT22;2196;47.422;9.656;2023-03-23T14:14:01;18.90;99.90
4366;DHT22;2196;47.422;9.656;2023-03-23T14:16:36;18.90;99.90
4366;DHT22;2196;47.422;9.656;2023-03-23T14:22:28;19.10;99.90
4366;DHT22;2196;47.422;9.656;2023-03-23T14:25:00;19.20;99.70
4366;DHT22;2196;47.422;9.656;2023-03-23T14:27:34;19.20;99.70
4366;DHT22;2196;47.422;9.656;2023-03-23T14:30:04;19.20;99.80
4366;DHT22;2196;47.422;9.656;2023-03-23T14:32:32;19.20;99.90
4366;DHT22;2196;47.422;9.656;2023-03-23T14:35:04;19.10;99.90
4366;DHT22;2196;47.422;9.656;2023-03-23T14:37:34;19.10;99.90
4366;DHT22;2196;47.422;9.656;2023-03-23T14:40:03;19.20;99.90
4366;DHT22;2196;47.422;9.656;2023-03-23T14:42:33;19.20;99.70
4366;DHT22;2196;47.422;9.656;2023-03-23T14:45:02;19.10;99.90
4366;DHT22;2196;47.422;9.656;2023-03-23T14:47:32;19.00;99.90
4366;DHT22;2196;47.422;9.656;2023-03-23T14:50:01;19.10;99.90
4366;DHT22;2196;47.422;9.656;2023-03-23T14:52:34;19.00;99.90
4366;DHT22;2196;47.422;9.656;2023-03-23T14:55:12;18.80;99.90
4366;DHT22;2196;47.422;9.656;2023-03-23T14:57:40;18.60;99.90
4366;DHT22;2196;47.422;9.656;2023-03-23T15:00:12;18.60;99.90
4366;DHT22;2196;47.422;9.656;2023-03-23T15:02:41;18.60;99.90
4366;DHT22;2196;47.422;9.656;2023-03-23T15:05:14;18.50;99.90
4366;DHT22;2196;47.422;9.656;2023-03-23T15:07:45;18.30;99.90
4366;DHT22;2196;47.422;9.656;2023-03-23T15:10:15;18.10;99.90
4366;DHT22;2196;47.422;9.656;2023-03-23T15:12:45;17.90;99.90
4366;DHT22;2196;47.422;9.656;2023-03-23T15:15:20;18.00;99.90
4366;DHT22;2196;47.422;9.656;2023-03-23T15:17:48;18.00;99.90
4366;DHT22;2196;47.422;9.656;2023-03-23T15:20:22;18.00;99.90
4366;DHT22;2196;47.422;9.656;2023-03-23T15:22:51;18.00;99.90
4366;DHT22;2196;47.422;9.656;2023-03-23T15:25:20;18.10;99.90
4366;DHT22;2196;47.422;9.656;2023-03-23T15:27:52;18.20;99.90
4366;DHT22;2196;47.422;9.656;2023-03-23T15:30:32;18.30;99.90
4366;DHT22;2196;47.422;9.656;2023-03-23T15:33:03;18.10;99.90
4366;DHT22;2196;47.422;9.656;2023-03-23T15:35:34;18.10;99.90
4366;DHT22;2196;47.422;9.656;2023-03-23T15:38:14;18.10;99.90
4366;DHT22;2196;47.422;9.656;2023-03-23T15:40:43;18.10;99.90
4366;DHT22;2196;47.422;9.656;2023-03-23T15:43:16;18.00;99.90
4366;DHT22;2196;47.422;9.656;2023-03-23T15:45:55;18.00;99.90
4366;DHT22;2196;47.422;9.656;2023-03-23T15:48:24;17.80;99.90
4366;DHT22;2196;47.422;9.656;2023-03-23T15:50:51;17.50;99.90
4366;DHT22;2196;47.422;9.656;2023-03-23T15:53:26;17.20;99.90
4366;DHT22;2196;47.422;9.656;2023-03-23T15:55:53;17.20;99.90
4366;DHT22;2196;47.422;9.656;2023-03-23T15:58:20;17.00;99.90
4366;DHT22;2196;47.422;9.656;2023-03-23T16:00:49;17.00;99.90
4366;DHT22;2196;47.422;9.656;2023-03-23T16:03:19;17.00;99.90
4366;DHT22;2196;47.422;9.656;2023-03-23T16:05:46;16.90;99.90
4366;DHT22;2196;47.422;9.656;2023-03-23T16:08:14;17.00;99.90
4366;DHT22;2196;47.422;9.656;2023-03-23T16:10:43;16.90;99.90
4366;DHT22;2196;47.422;9.656;2023-03-23T16:13:09;17.00;99.90
4366;DHT22;2196;47.422;9.656;2023-03-23T16:15:36;16.90;99.90
4366;DHT22;2196;47.422;9.656;2023-03-23T16:18:03;16.90;99.90
4366;DHT22;2196;47.422;9.656;2023-03-23T16:20:31;16.90;99.90
4366;DHT22;2196;47.422;9.656;2023-03-23T16:23:01;16.90;99.90
4366;DHT22;2196;47.422;9.656;2023-03-23T16:25:28;16.80;99.90
4366;DHT22;2196;47.422;9.656;2023-03-23T16:28:00;16.80;99.90
4366;DHT22;2196;47.422;9.656;2023-03-23T16:30:28;16.80;99.90
4366;DHT22;2196;47.422;9.656;2023-03-23T16:32:55;16.80;99.90
4366;DHT22;2196;47.422;9.656;2023-03-23T16:35:22;16.70;99.90
4366;DHT22;2196;47.422;9.656;2023-03-23T16:37:51;16.70;99.90
4366;DHT22;2196;47.422;9.656;2023-03-23T16:40:19;16.70;99.90
4366;DHT22;2196;47.422;9.656;2023-03-23T16:42:47;16.60;99.90
4366;DHT22;2196;47.422;9.656;2023-03-23T16:45:17;16.60;99.90
4366;DHT22;2196;47.422;9.656;2023-03-23T16:47:44;16.50;99.90
4366;DHT22;2196;47.422;9.656;2023-03-23T16:50:13;16.40;99.90
4366;DHT22;2196;47.422;9.656;2023-03-23T16:52:42;16.40;99.90
4366;DHT22;2196;47.422;9.656;2023-03-23T16:55:10;16.40;99.90
4366;DHT22;2196;47.422;9.656;2023-03-23T16:57:38;16.30;99.90
4366;DHT22;2196;47.422;9.656;2023-03-23T17:00:08;16.20;99.90
4366;DHT22;2196;47.422;9.656;2023-03-23T17:02:39;16.20;99.90
4366;DHT22;2196;47.422;9.656;2023-03-23T17:05:07;16.20;99.90
4366;DHT22;2196;47.422;9.656;2023-03-23T17:07:35;16.10;99.90
4366;DHT22;2196;47.422;9.656;2023-03-23T17:10:03;16.00;99.90
4366;DHT22;2196;47.422;9.656;2023-03-23T17:12:31;15.90;99.90
4366;DHT22;2196;47.422;9.656;2023-03-23T17:14:58;15.90;99.90
4366;DHT22;2196;47.422;9.656;2023-03-23T17:17:26;15.80;99.90
4366;DHT22;2196;47.422;9.656;2023-03-23T17:19:54;15.80;99.90
4366;DHT22;2196;47.422;9.656;2023-03-23T17:22:22;15.70;99.90
4366;DHT22;2196;47.422;9.656;2023-03-23T17:24:49;15.70;99.90
4366;DHT22;2196;47.422;9.656;2023-03-23T17:27:18;15.60;99.90
4366;DHT22;2196;47.422;9.656;2023-03-23T17:29:45;15.60;99.90
4366;DHT22;2196;47.422;9.656;2023-03-23T17:32:13;15.60;99.90
4366;DHT22;2196;47.422;9.656;2023-03-23T17:34:41;15.50;99.90
4366;DHT22;2196;47.422;9.656;2023-03-23T17:37:09;15.50;99.90
4366;DHT22;2196;47.422;9.656;2023-03-23T17:39:36;15.50;99.90
4366;DHT22;2196;47.422;9.656;2023-03-23T17:42:03;15.40;99.90
4366;DHT22;2196;47.422;9.656;2023-03-23T17:44:30;15.40;99.90
4366;DHT22;2196;47.422;9.656;2023-03-23T17:46:58;15.40;99.90
4366;DHT22;2196;47.422;9.656;2023-03-23T17:49:26;15.30;99.90
4366;DHT22;2196;47.422;9.656;2023-03-23T17:51:55;15.20;99.90
4366;DHT22;2196;47.422;9.656;2023-03-23T17:54:24;15.20;99.90
4366;DHT22;2196;47.422;9.656;2023-03-23T17:56:53;15.10;99.90
4366;DHT22;2196;47.422;9.656;2023-03-23T17:59:22;15.10;99.90
4366;DHT22;2196;47.422;9.656;2023-03-23T18:01:49;15.10;99.90
4366;DHT22;2196;47.422;9.656;2023-03-23T18:04:17;15.00;99.90
4366;DHT22;2196;47.422;9.656;2023-03-23T18:06:44;14.90;99.90
4366;DHT22;2196;47.422;9.656;2023-03-23T18:09:11;14.90;99.90
4366;DHT22;2196;47.422;9.656;2023-03-23T18:11:40;14.90;99.90
4366;DHT22;2196;47.422;9.656;2023-03-23T18:14:07;14.90;99.90
4366;DHT22;2196;47.422;9.656;2023-03-23T18:16:34;14.90;99.90
4366;DHT22;2196;47.422;9.656;2023-03-23T18:19:01;14.90;99.90
4366;DHT22;2196;47.422;9.656;2023-03-23T18:21:29;14.90;99.90
4366;DHT22;2196;47.422;9.656;2023-03-23T18:23:56;14.90;99.90
4366;DHT22;2196;47.422;9.656;2023-03-23T18:26:22;14.80;99.90
4366;DHT22;2196;47.422;9.656;2023-03-23T18:28:51;14.80;99.90
4366;DHT22;2196;47.422;9.656;2023-03-23T18:31:19;14.80;99.90
4366;DHT22;2196;47.422;9.656;2023-03-23T18:33:47;14.80;99.90
4366;DHT22;2196;47.422;9.656;2023-03-23T18:36:16;14.80;99.90
4366;DHT22;2196;47.422;9.656;2023-03-23T18:38:44;14.70;99.90
4366;DHT22;2196;47.422;9.656;2023-03-23T18:41:12;14.70;99.90
4366;DHT22;2196;47.422;9.656;2023-03-23T18:43:39;14.70;99.90
4366;DHT22;2196;47.422;9.656;2023-03-23T18:46:08;14.70;99.90
4366;DHT22;2196;47.422;9.656;2023-03-23T18:48:35;14.70;99.90
4366;DHT22;2196;47.422;9.656;2023-03-23T18:51:02;14.70;99.90
4366;DHT22;2196;47.422;9.656;2023-03-23T18:53:30;14.60;99.90
4366;DHT22;2196;47.422;9.656;2023-03-23T18:56:03;14.60;99.90